Time;durP1;ratioP1;P1;durP2;ratioP2;P2;SDS_P1;SDS_P2;PMS_P1;PMS_P2;Temp;Humidity;BMP_temperature;BMP_pressure;BME280_temperature;BME280_humidity;BME280_pressure;Samples;Min_cycle;Max_cycle;Signal;HPM_P1;HPM_P2
2024/04/15 04:09:07;;;;;;;;;;;20.10;46.90;;;;;;5381276;26;20263;-75
2024/04/15 04:11:32;;;;;;;;;;;20.70;49.00;;;;;;5380468;26;19961;-75
2024/04/15 04:13:58;;;;;;;;;;;20.10;48.70;;;;;;5380810;26;19929;-75
2024/04/15 04:16:23;;;;;;;;;;;20.10;48.80;;;;;;5380324;26;19935;-75
2024/04/15 04:18:48;;;;;;;;;;;20.10;48.70;;;;;;5378560;26;19949;-75
2024/04/15 04:21:14;;;;;;;;;;;20.00;48.40;;;;;;5380687;26;20272;-75
2024/04/15 04:23:39;;;;;;;;;;;20.00;48.90;;;;;;5380510;26;19929;-75
2024/04/15 04:26:05;;;;;;;;;;;20.00;48.80;;;;;;5380711;26;20013;-75
2024/04/15 04:28:30;;;;;;;;;;;20.00;49.30;;;;;;5380302;26;19934;-75
2024/04/15 04:31:02;;;;;;;;;;;20.00;48.90;;;;;;5380555;26;20367;-75
2024/04/15 04:33:28;;;;;;;;;;;20.00;47.00;;;;;;5380488;26;20385;-75
2024/04/15 04:35:54;;;;;;;;;;;20.00;48.60;;;;;;5380720;26;19929;-75
2024/04/15 04:38:19;;;;;;;;;;;19.90;48.70;;;;;;5380570;26;19999;-75
2024/04/15 04:40:45;;;;;;;;;;;19.90;48.80;;;;;;5380411;26;20455;-75
2024/04/15 04:43:10;;;;;;;;;;;19.90;49.00;;;;;;5380442;26;19934;-75
2024/04/15 04:45:36;;;;;;;;;;;19.90;48.70;;;;;;5379924;26;20375;-75
2024/04/15 04:48:01;;;;;;;;;;;19.90;48.70;;;;;;5349568;26;19930;-75
2024/04/15 04:50:27;;;;;;;;;;;19.90;48.60;;;;;;5379967;26;20342;-76
2024/04/15 04:52:52;;;;;;;;;;;19.90;48.90;;;;;;5379744;26;19930;-75
2024/04/15 04:55:18;;;;;;;;;;;19.90;48.80;;;;;;5378718;26;19929;-75
2024/04/15 04:57:43;;;;;;;;;;;19.90;48.70;;;;;;5379528;26;19936;-75
2024/04/15 05:00:09;;;;;;;;;;;19.90;48.70;;;;;;5379853;26;19936;-75
2024/04/15 05:02:35;;;;;;;;;;;19.80;48.20;;;;;;5362816;26;20269;-75
2024/04/15 05:05:00;;;;;;;;;;;19.90;48.90;;;;;;5314883;26;19999;-75
2024/04/15 05:07:26;;;;;;;;;;;19.80;49.00;;;;;;5345103;26;19937;-75
2024/04/15 05:09:51;;;;;;;;;;;19.80;48.90;;;;;;5344987;26;19930;-75
2024/04/15 05:12:17;;;;;;;;;;;19.80;48.80;;;;;;5345265;26;20003;-75
2024/04/15 05:14:42;;;;;;;;;;;19.80;48.80;;;;;;5344772;26;19936;-75
2024/04/15 05:17:10;;;;;;;;;;;19.70;48.70;;;;;;5345200;26;19930;-75
2024/04/15 05:19:35;;;;;;;;;;;19.70;48.80;;;;;;5348112;26;19930;-75
2024/04/15 05:22:00;;;;;;;;;;;19.70;48.80;;;;;;5348054;26;20245;-75
2024/04/15 05:24:26;;;;;;;;;;;19.70;48.80;;;;;;5348114;26;19938;-76
2024/04/15 05:26:52;;;;;;;;;;;19.70;48.70;;;;;;5351196;26;20264;-75
2024/04/15 05:29:17;;;;;;;;;;;19.70;48.60;;;;;;5349402;26;19930;-77
2024/04/15 05:31:43;;;;;;;;;;;19.50;48.30;;;;;;5348669;26;19937;-75
2024/04/15 05:34:08;;;;;;;;;;;19.60;48.30;;;;;;5347882;26;20378;-81
2024/04/15 05:36:34;;;;;;;;;;;19.70;48.70;;;;;;5348114;26;19930;-76
2024/04/15 05:38:59;;;;;;;;;;;19.70;48.00;;;;;;5347641;26;19930;-77
2024/04/15 05:41:25;;;;;;;;;;;19.60;48.90;;;;;;5347895;26;19937;-78
2024/04/15 05:43:50;;;;;;;;;;;19.60;48.70;;;;;;5347892;26;19938;-75
2024/04/15 05:46:16;;;;;;;;;;;19.60;48.70;;;;;;5347931;26;19930;-76
2024/04/15 05:48:42;;;;;;;;;;;19.60;48.70;;;;;;5347364;26;20330;-75
2024/04/15 05:51:07;;;;;;;;;;;19.60;48.80;;;;;;5347385;26;19930;-75
2024/04/15 05:53:33;;;;;;;;;;;19.60;48.50;;;;;;5347517;26;19930;-77
2024/04/15 05:55:59;;;;;;;;;;;19.50;48.90;;;;;;5347638;26;19930;-74
2024/04/15 05:58:26;;;;;;;;;;;19.60;48.80;;;;;;5347312;26;20263;-74
2024/04/15 06:00:52;;;;;;;;;;;19.60;48.40;;;;;;5318014;26;19930;-76
2024/04/15 06:03:18;;;;;;;;;;;19.60;48.20;;;;;;5347061;26;20233;-76
2024/04/15 06:05:44;;;;;;;;;;;20.00;48.90;;;;;;5347193;26;19937;-76
2024/04/15 06:08:10;;;;;;;;;;;19.50;48.80;;;;;;5347032;26;19930;-76
2024/04/15 06:10:35;;;;;;;;;;;19.50;49.00;;;;;;5346966;26;19940;-76
2024/04/15 06:13:01;;;;;;;;;;;19.50;49.10;;;;;;5346988;26;19999;-76
2024/04/15 06:15:28;;;;;;;;;;;19.60;49.00;;;;;;5347120;26;19950;-74
2024/04/15 06:17:54;;;;;;;;;;;19.50;49.10;;;;;;5316369;26;20003;-74
2024/04/15 06:20:20;;;;;;;;;;;19.50;49.00;;;;;;5346961;26;19938;-74
2024/04/15 06:22:46;;;;;;;;;;;19.50;49.70;;;;;;5346787;26;19938;-74
2024/04/15 06:25:12;;;;;;;;;;;19.50;49.20;;;;;;5346893;26;20242;-74
2024/04/15 06:27:38;;;;;;;;;;;19.60;48.80;;;;;;5346912;26;19930;-74
2024/04/15 06:30:05;;;;;;;;;;;19.60;49.10;;;;;;5345802;26;20434;-75
2024/04/15 06:32:31;;;;;;;;;;;19.50;48.30;;;;;;5346841;26;19934;-75
2024/04/15 06:34:57;;;;;;;;;;;19.50;49.20;;;;;;5346794;26;19930;-74
2024/04/15 06:37:23;;;;;;;;;;;19.50;48.90;;;;;;5346605;26;19930;-74
2024/04/15 06:39:49;;;;;;;;;;;19.50;49.10;;;;;;5344970;26;19962;-74
2024/04/15 06:42:15;;;;;;;;;;;19.50;49.30;;;;;;5346575;26;19930;-76
2024/04/15 06:44:41;;;;;;;;;;;19.50;49.10;;;;;;5346553;26;20271;-74
2024/04/15 06:47:07;;;;;;;;;;;19.60;49.30;;;;;;5346702;26;19934;-74
2024/04/15 06:49:33;;;;;;;;;;;19.50;48.90;;;;;;5346442;26;19941;-74
2024/04/15 06:51:59;;;;;;;;;;;19.50;49.00;;;;;;5346382;26;20349;-76
2024/04/15 06:54:24;;;;;;;;;;;19.50;49.10;;;;;;5346338;26;19931;-74
2024/04/15 06:56:50;;;;;;;;;;;19.50;49.10;;;;;;5346226;26;19936;-75
2024/04/15 06:59:17;;;;;;;;;;;19.40;48.90;;;;;;5346637;26;19930;-75
2024/04/15 07:01:43;;;;;;;;;;;19.50;48.70;;;;;;5345963;26;19995;-74
2024/04/15 07:04:09;;;;;;;;;;;19.40;48.70;;;;;;5346533;26;20200;-74
2024/04/15 07:06:35;;;;;;;;;;;19.50;49.00;;;;;;5345852;26;19934;-74
2024/04/15 07:09:00;;;;;;;;;;;19.50;49.50;;;;;;5346536;26;20307;-76
2024/04/15 07:11:26;;;;;;;;;;;19.50;48.80;;;;;;5346556;26;19946;-76
2024/04/15 07:13:52;;;;;;;;;;;19.40;49.10;;;;;;5346372;26;19930;-76
2024/04/15 07:16:18;;;;;;;;;;;19.50;48.70;;;;;;5346178;26;19957;-76
2024/04/15 07:18:44;;;;;;;;;;;19.50;49.50;;;;;;5345367;26;19954;-75
2024/04/15 07:21:10;;;;;;;;;;;19.90;49.30;;;;;;5346049;26;19938;-75
2024/04/15 07:23:36;;;;;;;;;;;19.40;49.20;;;;;;5346422;26;19937;-75
2024/04/15 07:26:03;;;;;;;;;;;19.50;48.60;;;;;;5346593;26;19930;-75
2024/04/15 07:28:29;;;;;;;;;;;19.40;49.30;;;;;;5346111;26;19937;-75
2024/04/15 07:30:59;;;;;;;;;;;19.40;49.40;;;;;;5346515;26;20255;-75
2024/04/15 07:33:25;;;;;;;;;;;19.20;47.30;;;;;;5346486;26;19938;-75
2024/04/15 07:35:57;;;;;;;;;;;19.40;49.20;;;;;;5346319;26;20022;-75
2024/04/15 07:38:23;;;;;;;;;;;19.40;47.30;;;;;;5346046;26;19929;-75
2024/04/15 07:40:48;;;;;;;;;;;19.40;49.20;;;;;;5345758;26;19930;-75
2024/04/15 07:43:14;;;;;;;;;;;19.40;49.30;;;;;;5346007;26;19936;-75
2024/04/15 07:45:39;;;;;;;;;;;19.40;49.40;;;;;;5346049;26;19930;-75
2024/04/15 07:48:05;;;;;;;;;;;19.40;49.50;;;;;;5346248;26;19930;-75
2024/04/15 07:50:30;;;;;;;;;;;19.40;48.70;;;;;;5345845;26;19930;-75
2024/04/15 07:52:56;;;;;;;;;;;19.40;49.00;;;;;;5345925;26;19938;-75
2024/04/15 07:55:21;;;;;;;;;;;19.40;48.90;;;;;;5346557;26;19929;-73
2024/04/15 07:57:47;;;;;;;;;;;19.30;49.20;;;;;;5346081;26;20263;-74
2024/04/15 08:00:12;;;;;;;;;;;19.30;49.20;;;;;;5345854;26;19958;-75
2024/04/15 08:02:38;;;;;;;;;;;19.30;48.50;;;;;;5345292;26;19937;-76
2024/04/15 08:05:03;;;;;;;;;;;19.30;49.20;;;;;;5344206;26;19930;-76
2024/04/15 08:07:29;;;;;;;;;;;19.30;48.80;;;;;;5344622;26;20115;-78
2024/04/15 08:09:58;;;;;;;;;;;19.20;49.00;;;;;;5345489;26;19937;-74
2024/04/15 08:12:23;;;;;;;;;;;19.30;49.10;;;;;;5345344;26;19941;-75
2024/04/15 08:14:49;;;;;;;;;;;19.40;48.80;;;;;;5346393;26;19929;-80
2024/04/15 08:17:14;;;;;;;;;;;19.20;48.90;;;;;;5346845;26;19976;-74
2024/04/15 08:19:40;;;;;;;;;;;19.20;49.10;;;;;;5345233;26;20256;-74
2024/04/15 08:22:05;;;;;;;;;;;19.20;48.80;;;;;;5345522;26;20000;-74
2024/04/15 08:24:31;;;;;;;;;;;19.30;48.90;;;;;;5345484;26;19937;-73
2024/04/15 08:26:56;;;;;;;;;;;19.20;49.20;;;;;;5345421;26;19929;-73
2024/04/15 08:29:22;;;;;;;;;;;19.20;49.20;;;;;;5345771;26;19992;-73
2024/04/15 08:31:48;;;;;;;;;;;19.50;49.00;;;;;;5345344;26;19934;-72
2024/04/15 08:34:13;;;;;;;;;;;19.20;48.80;;;;;;5345439;26;20003;-74
2024/04/15 08:36:39;;;;;;;;;;;19.20;49.10;;;;;;5345044;26;19930;-72
2024/04/15 08:39:05;;;;;;;;;;;19.20;49.10;;;;;;5345132;26;20267;-72
2024/04/15 08:41:35;;;;;;;;;;;19.10;49.00;;;;;;5344866;26;20341;-76
2024/04/15 08:44:05;;;;;;;;;;;19.20;49.20;;;;;;5344884;26;19966;-76
2024/04/15 08:46:39;;;;;;;;;;;19.20;48.60;;;;;;5344830;26;20364;-74
2024/04/15 08:49:06;;;;;;;;;;;19.20;47.10;;;;;;5344953;26;19954;-74
2024/04/15 08:51:33;;;;;;;;;;;19.20;48.50;;;;;;5344900;26;19937;-75
2024/04/15 08:53:59;;;;;;;;;;;17.20;47.60;;;;;;5344603;26;20356;-75
2024/04/15 08:56:25;;;;;;;;;;;19.20;48.80;;;;;;5344993;26;20000;-75
2024/04/15 08:58:54;;;;;;;;;;;19.20;48.80;;;;;;5344654;26;19961;-75
2024/04/15 09:01:21;;;;;;;;;;;19.20;48.30;;;;;;5344824;26;20000;-75
2024/04/15 09:03:48;;;;;;;;;;;19.20;48.80;;;;;;5344715;26;19930;-75
2024/04/15 09:06:15;;;;;;;;;;;19.20;48.50;;;;;;5344816;26;20005;-73
2024/04/15 09:08:43;;;;;;;;;;;19.20;48.50;;;;;;5344955;26;19934;-74
2024/04/15 09:11:09;;;;;;;;;;;19.20;48.60;;;;;;5344805;26;20267;-73
2024/04/15 09:13:35;;;;;;;;;;;19.00;48.30;;;;;;5344980;26;19962;-74
2024/04/15 09:16:01;;;;;;;;;;;19.20;48.70;;;;;;5345199;26;19930;-74
2024/04/15 09:18:27;;;;;;;;;;;19.20;48.60;;;;;;5344740;26;19970;-74
2024/04/15 09:20:53;;;;;;;;;;;19.20;48.20;;;;;;5345134;26;20281;-74
2024/04/15 09:23:20;;;;;;;;;;;19.20;48.40;;;;;;5344516;26;19930;-74
2024/04/15 09:25:46;;;;;;;;;;;19.20;48.40;;;;;;5344677;26;19934;-74
2024/04/15 09:28:12;;;;;;;;;;;19.20;48.50;;;;;;5344825;26;19938;-74
2024/04/15 09:30:38;;;;;;;;;;;19.20;48.70;;;;;;5344504;26;19930;-74
2024/04/15 09:33:05;;;;;;;;;;;19.00;48.40;;;;;;5344502;26;19930;-74
2024/04/15 09:35:34;;;;;;;;;;;19.20;48.70;;;;;;5344784;26;19934;-74
2024/04/15 09:38:17;;;;;;;;;;;19.20;48.90;;;;;;5341906;26;19999;-74
2024/04/15 09:40:44;;;;;;;;;;;19.20;48.60;;;;;;5344620;26;19939;-73
2024/04/15 09:43:10;;;;;;;;;;;19.20;48.20;;;;;;5344391;26;19944;-74
2024/04/15 09:45:36;;;;;;;;;;;19.20;48.50;;;;;;5344488;26;19934;-74
2024/04/15 09:48:09;;;;;;;;;;;19.20;48.60;;;;;;5344813;26;20270;-75
2024/04/15 09:50:38;;;;;;;;;;;19.30;47.20;;;;;;5344506;26;19930;-74
2024/04/15 09:53:05;;;;;;;;;;;19.20;48.70;;;;;;5344303;26;19934;-73
2024/04/15 09:55:36;;;;;;;;;;;19.20;48.60;;;;;;5344009;26;20323;-74
2024/04/15 09:58:03;;;;;;;;;;;19.20;47.10;;;;;;5343930;26;19950;-73
2024/04/15 10:00:29;;;;;;;;;;;19.20;48.70;;;;;;5344262;26;19937;-73
2024/04/15 10:03:22;;;;;;;;;;;19.20;48.30;;;;;;5343825;26;19937;-75
2024/04/15 10:05:51;;;;;;;;;;;19.20;47.40;;;;;;5343863;26;19934;-75
2024/04/15 10:08:17;;;;;;;;;;;19.20;48.90;;;;;;5347210;26;19941;-75
2024/04/15 10:10:44;;;;;;;;;;;19.20;49.20;;;;;;5347193;26;19934;-74
2024/04/15 10:13:11;;;;;;;;;;;19.20;49.10;;;;;;5347356;26;20038;-74
2024/04/15 10:15:37;;;;;;;;;;;19.20;49.00;;;;;;5346934;26;20228;-75
2024/04/15 10:18:04;;;;;;;;;;;19.50;49.20;;;;;;5347344;26;19938;-75
2024/04/15 10:20:31;;;;;;;;;;;19.20;49.10;;;;;;5346916;26;19930;-75
2024/04/15 10:22:57;;;;;;;;;;;19.10;49.10;;;;;;5346752;26;20331;-74
2024/04/15 10:25:25;;;;;;;;;;;19.20;49.20;;;;;;5346733;26;19963;-75
2024/04/15 10:27:50;;;;;;;;;;;19.10;49.10;;;;;;5347010;26;20257;-75
2024/04/15 10:30:17;;;;;;;;;;;19.20;49.50;;;;;;5346915;26;19977;-75
2024/04/15 10:32:43;;;;;;;;;;;19.20;49.20;;;;;;5347134;26;20249;-74
2024/04/15 10:35:22;;;;;;;;;;;19.20;49.40;;;;;;5346892;26;19930;-74
2024/04/15 10:37:51;;;;;;;;;;;19.20;47.70;;;;;;5346594;26;19938;-77
2024/04/15 10:40:20;;;;;;;;;;;19.10;47.60;;;;;;5346575;26;19930;-76
2024/04/15 10:42:46;;;;;;;;;;;19.10;48.30;;;;;;5346566;26;19938;-75
2024/04/15 10:45:15;;;;;;;;;;;19.10;49.40;;;;;;5346974;26;19930;-75
2024/04/15 10:47:41;;;;;;;;;;;19.10;49.70;;;;;;5346774;26;19934;-75
2024/04/15 10:50:08;;;;;;;;;;;19.10;49.40;;;;;;5346438;26;20087;-76
2024/04/15 10:52:34;;;;;;;;;;;19.10;49.60;;;;;;5346792;26;19941;-76
2024/04/15 10:55:00;;;;;;;;;;;19.10;49.50;;;;;;5346454;26;19930;-77
2024/04/15 10:57:26;;;;;;;;;;;19.10;49.80;;;;;;5346362;26;19953;-76
2024/04/15 10:59:52;;;;;;;;;;;19.10;49.90;;;;;;5346401;26;19930;-76
2024/04/15 11:02:19;;;;;;;;;;;19.20;49.20;;;;;;5345960;26;20236;-75
2024/04/15 11:04:46;;;;;;;;;;;19.20;49.90;;;;;;5346297;26;19937;-75
2024/04/15 11:07:12;;;;;;;;;;;19.10;49.50;;;;;;5346705;26;19938;-75
2024/04/15 11:09:38;;;;;;;;;;;19.10;49.50;;;;;;5346600;26;19976;-76
2024/04/15 11:12:04;;;;;;;;;;;19.00;49.70;;;;;;5346123;26;20046;-73
2024/04/15 11:33:01;;;;;;;;;;;20.90;49.20;;;;;;3519448;24;19945;-73
2024/04/15 11:35:27;;;;;;;;;;;19.00;48.90;;;;;;5378600;26;19930;-74
2024/04/15 11:37:58;;;;;;;;;;;19.00;49.10;;;;;;5378069;26;19940;-74
2024/04/15 11:40:24;;;;;;;;;;;19.00;49.20;;;;;;5377110;26;19929;-77
2024/04/15 11:42:54;;;;;;;;;;;19.00;48.80;;;;;;5379039;26;19957;-78
2024/04/15 11:45:20;;;;;;;;;;;19.00;47.80;;;;;;5376970;26;19930;-75
2024/04/15 11:47:52;;;;;;;;;;;19.00;49.20;;;;;;5377677;26;19937;-79
2024/04/15 11:50:19;;;;;;;;;;;19.00;47.90;;;;;;5378211;26;20447;-76
2024/04/15 11:52:45;;;;;;;;;;;19.00;48.90;;;;;;5378912;26;19998;-75
2024/04/15 11:55:17;;;;;;;;;;;19.00;48.50;;;;;;5379095;26;19930;-77
2024/04/15 11:57:44;;;;;;;;;;;18.90;47.90;;;;;;5378863;26;19930;-80
2024/04/15 12:00:11;;;;;;;;;;;19.00;49.30;;;;;;5378576;26;19953;-79
2024/04/15 12:02:37;;;;;;;;;;;18.90;48.60;;;;;;5378599;26;20294;-76
2024/04/15 12:05:05;;;;;;;;;;;18.90;49.00;;;;;;5378693;26;19949;-75
2024/04/15 12:07:31;;;;;;;;;;;18.90;49.10;;;;;;5378560;26;19929;-76
2024/04/15 12:09:58;;;;;;;;;;;18.90;49.40;;;;;;5378776;26;19929;-76
2024/04/15 12:12:24;;;;;;;;;;;18.90;49.70;;;;;;5379078;26;19936;-77
2024/04/15 12:14:50;;;;;;;;;;;18.90;49.50;;;;;;5378343;26;19948;-75
2024/04/15 12:17:16;;;;;;;;;;;18.90;49.50;;;;;;5378406;26;20397;-77
2024/04/15 12:19:42;;;;;;;;;;;18.80;49.40;;;;;;5378397;26;19936;-77
2024/04/15 12:22:07;;;;;;;;;;;18.90;49.50;;;;;;5378401;26;19937;-76
2024/04/15 12:24:33;;;;;;;;;;;18.80;49.50;;;;;;5378537;26;19930;-78
2024/04/15 12:26:59;;;;;;;;;;;18.80;49.70;;;;;;5376870;26;19938;-76
2024/04/15 12:29:25;;;;;;;;;;;18.90;49.50;;;;;;5378736;26;19936;-76
2024/04/15 12:31:51;;;;;;;;;;;18.80;49.90;;;;;;5378404;26;19933;-79
2024/04/15 12:34:17;;;;;;;;;;;18.80;49.50;;;;;;5378727;26;19929;-77
2024/04/15 12:36:43;;;;;;;;;;;18.80;50.00;;;;;;5378255;26;19929;-77
2024/04/15 12:39:10;;;;;;;;;;;18.90;49.10;;;;;;5379254;26;19929;-76
2024/04/15 12:41:36;;;;;;;;;;;18.80;49.40;;;;;;5378581;26;19929;-80
2024/04/15 12:44:05;;;;;;;;;;;18.80;49.30;;;;;;5378290;26;19941;-77
2024/04/15 12:46:31;;;;;;;;;;;18.80;49.30;;;;;;5378384;26;20059;-74
2024/04/15 12:48:57;;;;;;;;;;;18.90;49.40;;;;;;5378388;26;19999;-75
2024/04/15 12:51:23;;;;;;;;;;;18.80;49.50;;;;;;5378405;26;19941;-74
2024/04/15 12:53:49;;;;;;;;;;;18.80;49.20;;;;;;5378555;26;19929;-80
2024/04/15 12:56:15;;;;;;;;;;;18.70;49.80;;;;;;5378664;26;19933;-75
2024/04/15 12:58:41;;;;;;;;;;;18.70;49.10;;;;;;5378681;26;19936;-75
2024/04/15 13:01:07;;;;;;;;;;;18.70;49.20;;;;;;5378063;26;19929;-76
2024/04/15 13:03:33;;;;;;;;;;;18.80;48.50;;;;;;5378490;26;20002;-75
2024/04/15 13:06:00;;;;;;;;;;;18.70;48.80;;;;;;5378454;26;19930;-76
2024/04/15 13:08:26;;;;;;;;;;;18.70;48.90;;;;;;5378673;26;20390;-76
2024/04/15 13:10:52;;;;;;;;;;;18.70;49.10;;;;;;5378388;26;19933;-75
2024/04/15 13:13:18;;;;;;;;;;;18.70;48.90;;;;;;5378074;26;20362;-79
2024/04/15 13:15:44;;;;;;;;;;;17.80;48.60;;;;;;5378495;26;19930;-77
2024/04/15 13:18:09;;;;;;;;;;;18.70;48.70;;;;;;5378249;26;19929;-77
2024/04/15 13:20:35;;;;;;;;;;;18.70;48.80;;;;;;5378281;26;19929;-77
2024/04/15 13:23:02;;;;;;;;;;;18.60;48.80;;;;;;5378381;26;19929;-77
2024/04/15 13:25:29;;;;;;;;;;;18.70;48.90;;;;;;5377860;26;20043;-77
2024/04/15 13:27:56;;;;;;;;;;;18.70;48.60;;;;;;5377923;26;19934;-77
2024/04/15 13:30:22;;;;;;;;;;;18.60;48.70;;;;;;5377669;26;20420;-78
2024/04/15 13:32:48;;;;;;;;;;;19.00;49.00;;;;;;5377776;26;20037;-76
2024/04/15 13:35:14;;;;;;;;;;;18.60;48.40;;;;;;5378100;26;19946;-76
2024/04/15 13:37:40;;;;;;;;;;;18.60;48.40;;;;;;5378587;26;19937;-76
2024/04/15 13:40:06;;;;;;;;;;;18.60;48.50;;;;;;5381427;26;19936;-75
2024/04/15 13:42:32;;;;;;;;;;;18.60;48.20;;;;;;5381469;26;19975;-76
2024/04/15 13:44:59;;;;;;;;;;;18.50;48.50;;;;;;5381600;26;19930;-75
2024/04/15 13:47:26;;;;;;;;;;;18.50;48.50;;;;;;5381386;26;19929;-78
2024/04/15 13:49:51;;;;;;;;;;;18.50;47.60;;;;;;5381519;26;19936;-76
2024/04/15 13:52:17;;;;;;;;;;;18.60;48.70;;;;;;5380649;26;19937;-75
2024/04/15 13:54:44;;;;;;;;;;;19.10;48.60;;;;;;5380351;26;19935;-77
2024/04/15 13:57:10;;;;;;;;;;;18.90;48.40;;;;;;5380263;26;20003;-78
2024/04/15 13:59:36;;;;;;;;;;;18.60;48.60;;;;;;5380692;26;19965;-77
2024/04/15 14:02:01;;;;;;;;;;;18.80;47.80;;;;;;5380320;26;20061;-79
2024/04/15 14:04:27;;;;;;;;;;;18.70;48.10;;;;;;5380349;26;19930;-77
2024/04/15 14:06:53;;;;;;;;;;;19.00;48.10;;;;;;5380667;26;20042;-79
2024/04/15 14:09:19;;;;;;;;;;;19.20;47.40;;;;;;5380554;26;19929;-77
2024/04/15 14:11:45;;;;;;;;;;;19.40;46.80;;;;;;5380579;26;19930;-78
2024/04/15 14:14:16;;;;;;;;;;;19.40;46.70;;;;;;5380545;26;19953;-77
2024/04/15 14:16:43;;;;;;;;;;;19.70;45.90;;;;;;5380569;26;19930;-76
2024/04/15 14:19:09;;;;;;;;;;;19.40;46.50;;;;;;5380159;26;19929;-76
2024/04/15 14:21:35;;;;;;;;;;;19.40;46.80;;;;;;5380299;26;19929;-76
2024/04/15 14:24:00;;;;;;;;;;;19.40;47.00;;;;;;5379959;26;19941;-75
2024/04/15 14:26:26;;;;;;;;;;;19.40;46.90;;;;;;5379374;26;19929;-76
2024/04/15 14:28:52;;;;;;;;;;;19.40;47.10;;;;;;5378848;26;19938;-76
2024/04/15 14:31:17;;;;;;;;;;;19.30;47.50;;;;;;5380086;26;19929;-76
2024/04/15 14:33:43;;;;;;;;;;;19.30;47.40;;;;;;5379312;26;20393;-77
2024/04/15 14:36:09;;;;;;;;;;;19.30;47.30;;;;;;5379590;26;19936;-76
2024/04/15 14:38:38;;;;;;;;;;;19.30;47.40;;;;;;5379268;26;20253;-77
2024/04/15 14:41:05;;;;;;;;;;;19.40;47.70;;;;;;5379326;26;19936;-77
2024/04/15 14:43:31;;;;;;;;;;;19.40;47.10;;;;;;5379518;26;19929;-76
2024/04/15 14:45:57;;;;;;;;;;;19.40;47.40;;;;;;5379745;26;19962;-75
2024/04/15 14:48:23;;;;;;;;;;;19.50;47.00;;;;;;5379566;26;19929;-75
2024/04/15 14:50:50;;;;;;;;;;;19.40;47.00;;;;;;5378029;26;19936;-76
2024/04/15 14:53:15;;;;;;;;;;;19.90;47.40;;;;;;5379625;26;19999;-76
2024/04/15 14:55:42;;;;;;;;;;;19.40;47.30;;;;;;5379459;26;19938;-76
2024/04/15 14:58:08;;;;;;;;;;;19.50;46.70;;;;;;5379011;26;19969;-76
2024/04/15 15:00:34;;;;;;;;;;;19.60;47.00;;;;;;5379184;26;19945;-75
2024/04/15 15:02:59;;;;;;;;;;;19.70;46.20;;;;;;5379487;26;20095;-76
2024/04/15 15:05:25;;;;;;;;;;;19.80;46.70;;;;;;5379481;26;20298;-76
2024/04/15 15:07:51;;;;;;;;;;;19.90;46.30;;;;;;5379085;26;19965;-76
2024/04/15 15:10:17;;;;;;;;;;;20.00;46.40;;;;;;5378948;26;20403;-77
2024/04/15 15:12:44;;;;;;;;;;;20.10;46.10;;;;;;5379022;26;19937;-76
2024/04/15 15:15:11;;;;;;;;;;;20.20;45.60;;;;;;5378896;26;19997;-77
2024/04/15 15:17:37;;;;;;;;;;;20.30;45.70;;;;;;5378632;26;19997;-77
2024/04/15 15:20:04;;;;;;;;;;;20.30;45.30;;;;;;5379173;26;19930;-75
2024/04/15 15:22:30;;;;;;;;;;;19.80;45.10;;;;;;5379635;26;19929;-76
2024/04/15 15:24:56;;;;;;;;;;;20.20;45.40;;;;;;5379441;26;19930;-76
2024/04/15 15:27:24;;;;;;;;;;;20.20;45.70;;;;;;5379536;26;20292;-77
2024/04/15 15:29:51;;;;;;;;;;;20.30;45.40;;;;;;5379061;26;19945;-77
2024/04/15 15:32:18;;;;;;;;;;;20.20;45.30;;;;;;5379465;26;19941;-79
2024/04/15 15:34:44;;;;;;;;;;;20.10;45.70;;;;;;5379745;26;19929;-80
2024/04/15 15:37:10;;;;;;;;;;;20.00;46.00;;;;;;5379662;26;19945;-79
2024/04/15 15:39:36;;;;;;;;;;;19.90;46.00;;;;;;5379642;26;20110;-80
2024/04/15 15:42:02;;;;;;;;;;;19.80;46.30;;;;;;5379504;26;19930;-77
2024/04/15 15:44:28;;;;;;;;;;;19.70;46.20;;;;;;5379484;26;19930;-77
2024/04/15 15:46:54;;;;;;;;;;;19.60;46.60;;;;;;5379240;26;19945;-79
2024/04/15 15:49:19;;;;;;;;;;;20.30;47.60;;;;;;5379134;26;20415;-75
2024/04/15 15:51:45;;;;;;;;;;;19.50;47.30;;;;;;5379015;26;19937;-78
2024/04/15 16:00:30;;;;;;;;;;;19.60;45.80;;;;;;5416594;26;19936;-78
2024/04/15 16:02:56;;;;;;;;;;;19.60;47.10;;;;;;5416751;26;19958;-77
2024/04/15 16:05:23;;;;;;;;;;;19.80;47.10;;;;;;5416689;26;19929;-77
2024/04/15 16:07:48;;;;;;;;;;;19.60;47.00;;;;;;5384859;26;19933;-76
2024/04/15 16:10:14;;;;;;;;;;;19.60;47.20;;;;;;5385206;26;19939;-75
2024/04/15 16:12:40;;;;;;;;;;;19.60;47.00;;;;;;5416009;26;19959;-75
2024/04/15 16:15:05;;;;;;;;;;;19.60;47.00;;;;;;5416060;26;19929;-75
2024/04/15 16:17:31;;;;;;;;;;;19.60;46.70;;;;;;5415938;26;19940;-77
2024/04/15 16:19:56;;;;;;;;;;;19.60;46.80;;;;;;5415888;26;19930;-76
2024/04/15 16:22:22;;;;;;;;;;;19.50;47.10;;;;;;5415751;26;19928;-73
2024/04/15 16:24:47;;;;;;;;;;;19.50;47.20;;;;;;5415784;26;19948;-74
2024/04/15 16:27:13;;;;;;;;;;;19.40;47.00;;;;;;5416441;26;19929;-74
2024/04/15 16:29:38;;;;;;;;;;;19.30;47.30;;;;;;5414187;26;19937;-75
2024/04/15 16:32:06;;;;;;;;;;;19.20;47.50;;;;;;5416267;26;20362;-74
2024/04/15 16:34:32;;;;;;;;;;;19.20;47.50;;;;;;5415903;26;19929;-76
2024/04/15 16:36:58;;;;;;;;;;;19.20;47.80;;;;;;5415646;26;19937;-75
2024/04/15 16:39:24;;;;;;;;;;;19.20;47.70;;;;;;5384563;26;20023;-75
2024/04/15 16:41:49;;;;;;;;;;;19.20;47.40;;;;;;5415562;26;20359;-74
2024/04/15 16:44:15;;;;;;;;;;;19.20;47.60;;;;;;5415782;26;19930;-74
2024/04/15 16:46:40;;;;;;;;;;;19.30;47.50;;;;;;5415201;26;20006;-75
2024/04/15 16:49:06;;;;;;;;;;;19.20;47.60;;;;;;5415386;26;19929;-74
2024/04/15 16:51:31;;;;;;;;;;;19.30;47.70;;;;;;5383925;26;19961;-74
2024/04/15 16:53:57;;;;;;;;;;;19.40;46.70;;;;;;5376034;26;20372;-75
2024/04/15 16:56:22;;;;;;;;;;;19.40;47.60;;;;;;5349464;26;19936;-74
2024/04/15 16:58:49;;;;;;;;;;;19.40;47.60;;;;;;5379578;26;19964;-73
2024/04/15 17:01:14;;;;;;;;;;;19.40;47.40;;;;;;5379740;26;20217;-74
2024/04/15 17:03:40;;;;;;;;;;;19.40;47.50;;;;;;5349131;26;19937;-75
2024/04/15 17:06:06;;;;;;;;;;;19.30;47.40;;;;;;5379660;26;20356;-75
2024/04/15 17:08:32;;;;;;;;;;;19.30;47.00;;;;;;5348315;26;20375;-74
2024/04/15 17:10:57;;;;;;;;;;;19.20;47.40;;;;;;5379294;26;19956;-75
2024/04/15 17:13:23;;;;;;;;;;;19.20;47.50;;;;;;5378252;26;19945;-75
2024/04/15 17:15:48;;;;;;;;;;;19.10;47.40;;;;;;5379715;26;19979;-75
2024/04/15 17:18:14;;;;;;;;;;;19.00;47.80;;;;;;5379106;26;19930;-75
2024/04/15 17:20:39;;;;;;;;;;;18.60;47.60;;;;;;5379528;26;19936;-75
2024/04/15 17:23:05;;;;;;;;;;;19.00;47.90;;;;;;5348086;26;19930;-75
2024/04/15 17:25:30;;;;;;;;;;;18.90;48.00;;;;;;5349228;26;19936;-75
2024/04/15 17:27:56;;;;;;;;;;;18.60;47.60;;;;;;5348611;26;19936;-75
2024/04/15 17:30:22;;;;;;;;;;;18.80;48.10;;;;;;5379491;26;19930;-75
2024/04/15 17:32:47;;;;;;;;;;;18.70;48.00;;;;;;5348495;26;19936;-75
2024/04/15 17:35:13;;;;;;;;;;;18.70;48.30;;;;;;5379475;26;19940;-74
2024/04/15 17:37:39;;;;;;;;;;;18.60;48.20;;;;;;5379494;26;19933;-74
2024/04/15 17:40:07;;;;;;;;;;;18.60;48.00;;;;;;5379333;26;19930;-74
2024/04/15 17:42:32;;;;;;;;;;;18.60;48.40;;;;;;5348498;26;19981;-73
2024/04/15 17:44:58;;;;;;;;;;;18.50;48.30;;;;;;5380054;26;20000;-74
2024/04/15 17:47:23;;;;;;;;;;;18.60;48.60;;;;;;5379122;26;19930;-74
2024/04/15 17:49:49;;;;;;;;;;;18.60;49.00;;;;;;5378980;26;19933;-74
2024/04/15 17:52:14;;;;;;;;;;;18.40;48.40;;;;;;5379163;26;19934;-75
2024/04/15 17:54:40;;;;;;;;;;;18.50;48.30;;;;;;5365710;26;20319;-74
2024/04/15 17:57:06;;;;;;;;;;;18.50;49.10;;;;;;5385313;26;20044;-74
2024/04/15 17:59:32;;;;;;;;;;;18.40;48.80;;;;;;5382263;26;19936;-75
2024/04/15 18:01:58;;;;;;;;;;;18.40;48.90;;;;;;5382241;26;19929;-74
2024/04/15 18:04:23;;;;;;;;;;;18.40;49.00;;;;;;5382196;26;19952;-74
2024/04/15 18:06:49;;;;;;;;;;;18.50;48.40;;;;;;5413603;26;19929;-76
2024/04/15 18:09:15;;;;;;;;;;;18.40;48.90;;;;;;5413442;26;19998;-77
2024/04/15 18:11:40;;;;;;;;;;;18.40;49.10;;;;;;5413530;26;19997;-77
2024/04/15 18:14:06;;;;;;;;;;;18.90;49.20;;;;;;5413668;26;19936;-79
2024/04/15 18:16:32;;;;;;;;;;;18.30;48.80;;;;;;5382184;26;19936;-79
2024/04/15 18:18:57;;;;;;;;;;;18.30;49.00;;;;;;5413184;26;19937;-78
2024/04/15 18:21:23;;;;;;;;;;;18.30;49.00;;;;;;5414030;26;20374;-78
2024/04/15 18:23:48;;;;;;;;;;;18.30;49.10;;;;;;5382042;26;19998;-78
2024/04/15 18:26:14;;;;;;;;;;;18.30;49.00;;;;;;5416870;26;19959;-77
2024/04/15 18:28:39;;;;;;;;;;;18.20;49.00;;;;;;5416941;26;19929;-78
2024/04/15 18:31:05;;;;;;;;;;;18.30;49.00;;;;;;5385831;26;19961;-78
2024/04/15 18:33:31;;;;;;;;;;;18.20;49.00;;;;;;5416803;26;19937;-78
2024/04/15 18:35:56;;;;;;;;;;;18.10;48.80;;;;;;5385155;26;19929;-76
2024/04/15 18:38:22;;;;;;;;;;;18.10;48.80;;;;;;5416673;26;19929;-78
2024/04/15 18:40:48;;;;;;;;;;;18.10;49.10;;;;;;5417158;26;19929;-79
2024/04/15 18:43:13;;;;;;;;;;;18.10;48.80;;;;;;5416751;26;20262;-78